Time;durP1;ratioP1;P1;durP2;ratioP2;P2;SDS_P1;SDS_P2;PMS_P1;PMS_P2;Temp;Humidity;BMP_temperature;BMP_pressure;BME280_temperature;BME280_humidity;BME280_pressure;Samples;Min_cycle;Max_cycle;Signal;HPM_P1;HPM_P2
2021/03/31 00:01:58;;;;;;;41.20;23.25;;;;;;;;;;5035965;28;20049;-67
2021/03/31 00:04:24;;;;;;;40.15;22.60;;;;;;;;;;5036494;28;20026;-67
2021/03/31 00:06:50;;;;;;;41.13;24.50;;;;;;;;;;5036988;28;20044;-67
2021/03/31 00:09:16;;;;;;;47.33;24.05;;;;;;;;;;5036098;28;20026;-67
2021/03/31 00:11:42;;;;;;;41.17;23.92;;;;;;;;;;5019330;28;20356;-67
2021/03/31 00:14:10;;;;;;;48.90;25.70;;;;;;;;;;5036326;28;20017;-67
2021/03/31 00:16:36;;;;;;;44.67;24.65;;;;;;;;;;5035821;28;20084;-68
2021/03/31 00:19:02;;;;;;;43.10;23.25;;;;;;;;;;5034822;28;20457;-69
2021/03/31 00:21:28;;;;;;;48.72;23.77;;;;;;;;;;5036145;28;20423;-69
2021/03/31 00:23:54;;;;;;;43.88;25.75;;;;;;;;;;5035802;28;20029;-70
2021/03/31 00:26:20;;;;;;;46.00;24.90;;;;;;;;;;5035801;28;20040;-69
2021/03/31 00:28:47;;;;;;;43.58;24.92;;;;;;;;;;5036342;28;20026;-69
2021/03/31 00:31:13;;;;;;;46.67;25.17;;;;;;;;;;5035678;28;20106;-69
2021/03/31 00:33:39;;;;;;;43.15;24.42;;;;;;;;;;5035914;28;20084;-67
2021/03/31 00:36:06;;;;;;;43.22;25.48;;;;;;;;;;5036111;28;20040;-68
2021/03/31 00:38:32;;;;;;;43.58;25.02;;;;;;;;;;5035547;28;20026;-68
2021/03/31 00:40:58;;;;;;;45.25;25.00;;;;;;;;;;5035971;28;20034;-68
2021/03/31 00:43:24;;;;;;;46.75;25.00;;;;;;;;;;5035508;28;20018;-68
2021/03/31 00:45:51;;;;;;;46.75;26.05;;;;;;;;;;5035181;28;20034;-67
2021/03/31 00:48:17;;;;;;;40.90;24.30;;;;;;;;;;5035652;28;20469;-68
2021/03/31 00:50:45;;;;;;;44.22;25.05;;;;;;;;;;5035099;28;20044;-68
2021/03/31 00:53:11;;;;;;;42.90;25.50;;;;;;;;;;5035644;28;20053;-68
2021/03/31 00:55:38;;;;;;;44.05;25.40;;;;;;;;;;5035372;28;20041;-68
2021/03/31 00:58:04;;;;;;;48.65;26.88;;;;;;;;;;5035231;28;20029;-68
2021/03/31 01:00:30;;;;;;;46.45;26.73;;;;;;;;;;5018577;28;20112;-68
2021/03/31 01:02:56;;;;;;;46.05;26.02;;;;;;;;;;5017653;28;20113;-68
2021/03/31 01:05:24;;;;;;;52.65;27.65;;;;;;;;;;5035723;28;20033;-68
2021/03/31 01:07:50;;;;;;;45.38;24.80;;;;;;;;;;5035057;28;20021;-68
2021/03/31 01:10:17;;;;;;;42.05;25.27;;;;;;;;;;5035290;28;20049;-68
2021/03/31 01:13:08;;;;;;;45.92;25.70;;;;;;;;;;5035005;28;20032;-69
2021/03/31 01:15:37;;;;;;;47.80;25.83;;;;;;;;;;5035169;28;20032;-67
2021/03/31 01:18:10;;;;;;;49.03;26.55;;;;;;;;;;5035182;28;20026;-68
2021/03/31 01:20:51;;;;;;;49.30;25.77;;;;;;;;;;5034580;28;20018;-68
2021/03/31 01:23:32;;;;;;;38.83;24.50;;;;;;;;;;5034689;28;20029;-69
2021/03/31 01:26:08;;;;;;;43.97;25.40;;;;;;;;;;5034746;28;20025;-67
2021/03/31 01:28:41;;;;;;;46.75;25.58;;;;;;;;;;5034509;28;20026;-67
2021/03/31 01:31:10;;;;;;;46.03;25.23;;;;;;;;;;5034705;28;20132;-69
2021/03/31 01:33:45;;;;;;;44.75;25.83;;;;;;;;;;5016854;28;20021;-70
2021/03/31 01:36:13;;;;;;;45.33;25.83;;;;;;;;;;5034739;28;20026;-67
2021/03/31 01:38:40;;;;;;;46.47;25.77;;;;;;;;;;5035052;28;20037;-69
2021/03/31 01:41:07;;;;;;;42.72;25.33;;;;;;;;;;5016880;28;20029;-69
2021/03/31 01:43:34;;;;;;;52.33;29.75;;;;;;;;;;5034384;28;20034;-68
2021/03/31 01:46:00;;;;;;;53.75;28.30;;;;;;;;;;5034611;28;20037;-69
2021/03/31 01:48:28;;;;;;;47.80;26.63;;;;;;;;;;5016539;28;20026;-67
2021/03/31 01:50:57;;;;;;;48.63;27.80;;;;;;;;;;5034730;28;20024;-69
2021/03/31 01:53:24;;;;;;;47.05;26.38;;;;;;;;;;5034481;28;20028;-69
2021/03/31 01:55:54;;;;;;;45.47;26.75;;;;;;;;;;5034054;28;20033;-67
2021/03/31 01:58:21;;;;;;;45.10;25.05;;;;;;;;;;5034128;28;20114;-69
2021/03/31 02:00:47;;;;;;;42.28;25.27;;;;;;;;;;5016675;28;20026;-67
2021/03/31 02:03:18;;;;;;;50.25;27.88;;;;;;;;;;5034600;28;20087;-67
2021/03/31 02:05:45;;;;;;;47.05;26.73;;;;;;;;;;5034593;28;20082;-67
2021/03/31 02:08:11;;;;;;;45.70;26.15;;;;;;;;;;5016314;28;20025;-68
2021/03/31 02:10:39;;;;;;;45.83;25.40;;;;;;;;;;5034939;28;20436;-67
2021/03/31 02:13:06;;;;;;;48.10;26.80;;;;;;;;;;5033848;28;20037;-68
2021/03/31 02:15:32;;;;;;;42.30;25.17;;;;;;;;;;5033446;28;20032;-69
2021/03/31 02:17:59;;;;;;;45.00;25.55;;;;;;;;;;5033801;28;20028;-68
2021/03/31 02:20:26;;;;;;;49.35;25.02;;;;;;;;;;5034039;28;20472;-69
2021/03/31 02:22:53;;;;;;;48.30;25.52;;;;;;;;;;5033808;28;20018;-67
2021/03/31 02:25:19;;;;;;;39.80;24.65;;;;;;;;;;5016575;28;20021;-67
2021/03/31 02:27:46;;;;;;;49.30;25.70;;;;;;;;;;5033938;28;20472;-67
2021/03/31 02:30:14;;;;;;;42.70;25.70;;;;;;;;;;5015658;28;20045;-67
2021/03/31 02:32:42;;;;;;;53.72;27.55;;;;;;;;;;5033774;28;20389;-67
2021/03/31 02:35:09;;;;;;;46.22;25.95;;;;;;;;;;5033832;28;20465;-67
2021/03/31 02:37:36;;;;;;;48.03;26.98;;;;;;;;;;5033470;28;20461;-68
2021/03/31 02:40:03;;;;;;;51.60;25.98;;;;;;;;;;5033747;28;20535;-67
2021/03/31 02:42:29;;;;;;;56.28;25.95;;;;;;;;;;5033381;28;20104;-67
2021/03/31 02:44:57;;;;;;;46.35;25.77;;;;;;;;;;5033791;28;20379;-67
2021/03/31 02:47:28;;;;;;;44.65;25.88;;;;;;;;;;5033472;28;20380;-67
2021/03/31 02:49:56;;;;;;;48.20;26.45;;;;;;;;;;5033500;28;20076;-68
2021/03/31 02:52:23;;;;;;;40.55;26.38;;;;;;;;;;5033815;28;20033;-68
2021/03/31 02:54:49;;;;;;;47.88;26.02;;;;;;;;;;5033443;28;20100;-68
2021/03/31 02:57:16;;;;;;;45.35;25.35;;;;;;;;;;5033020;28;20044;-68
2021/03/31 02:59:42;;;;;;;46.53;26.60;;;;;;;;;;5015959;28;20107;-67
2021/03/31 03:02:09;;;;;;;44.70;26.15;;;;;;;;;;5033690;28;20369;-68
2021/03/31 03:04:36;;;;;;;51.97;26.45;;;;;;;;;;5033341;28;20087;-68
2021/03/31 03:07:03;;;;;;;50.15;27.73;;;;;;;;;;5033330;28;20037;-67
2021/03/31 03:09:30;;;;;;;45.13;26.05;;;;;;;;;;5016360;28;20049;-67
2021/03/31 03:11:56;;;;;;;48.90;28.48;;;;;;;;;;5032935;28;20026;-68
2021/03/31 03:14:23;;;;;;;48.63;27.80;;;;;;;;;;5033314;28;20044;-67
2021/03/31 03:16:49;;;;;;;50.33;27.70;;;;;;;;;;5033461;28;20425;-67
2021/03/31 03:19:15;;;;;;;41.97;26.20;;;;;;;;;;5032880;28;20065;-67
2021/03/31 03:21:41;;;;;;;42.60;25.25;;;;;;;;;;5033466;28;20029;-67
2021/03/31 03:24:08;;;;;;;45.10;25.05;;;;;;;;;;5015729;28;20029;-67
2021/03/31 03:26:38;;;;;;;41.53;25.52;;;;;;;;;;5032830;28;20057;-68
2021/03/31 03:29:05;;;;;;;45.67;25.88;;;;;;;;;;5033373;28;20036;-68
2021/03/31 03:31:32;;;;;;;49.90;26.88;;;;;;;;;;5033021;28;20397;-67
2021/03/31 03:33:58;;;;;;;47.13;27.10;;;;;;;;;;5032922;28;20098;-68
2021/03/31 03:36:24;;;;;;;57.67;30.00;;;;;;;;;;5033209;28;20079;-67
2021/03/31 03:38:50;;;;;;;55.22;29.67;;;;;;;;;;5032950;28;20029;-68
2021/03/31 03:41:16;;;;;;;55.72;29.42;;;;;;;;;;5032972;28;20385;-68
2021/03/31 03:43:43;;;;;;;61.85;32.25;;;;;;;;;;5015495;28;20026;-67
2021/03/31 03:46:10;;;;;;;60.45;33.78;;;;;;;;;;5032628;28;20021;-67
2021/03/31 03:48:37;;;;;;;54.20;29.63;;;;;;;;;;5032896;28;20417;-68
2021/03/31 03:51:06;;;;;;;44.63;27.98;;;;;;;;;;5033748;28;20522;-67
2021/03/31 03:53:33;;;;;;;50.33;27.90;;;;;;;;;;5035949;28;20034;-67
2021/03/31 03:56:00;;;;;;;55.75;29.77;;;;;;;;;;5036335;28;20362;-67
2021/03/31 03:58:26;;;;;;;55.20;29.10;;;;;;;;;;5036381;28;20032;-67
2021/03/31 04:01:01;;;;;;;58.55;30.05;;;;;;;;;;5036316;28;20026;-68
2021/03/31 04:03:27;;;;;;;62.47;31.17;;;;;;;;;;5036309;28;20029;-68
2021/03/31 04:05:53;;;;;;;54.60;29.52;;;;;;;;;;5036786;28;20104;-67
2021/03/31 04:08:20;;;;;;;47.58;29.02;;;;;;;;;;5035940;28;20017;-67
2021/03/31 04:10:48;;;;;;;49.25;29.55;;;;;;;;;;5036104;28;20036;-67
2021/03/31 04:13:15;;;;;;;41.83;24.88;;;;;;;;;;5036340;28;20030;-67
2021/03/31 04:15:43;;;;;;;43.33;24.75;;;;;;;;;;5035976;28;20052;-68
2021/03/31 04:18:10;;;;;;;39.25;24.05;;;;;;;;;;5036569;28;20040;-67
2021/03/31 04:20:37;;;;;;;41.70;23.85;;;;;;;;;;5035650;28;20099;-68
2021/03/31 04:23:03;;;;;;;46.47;26.60;;;;;;;;;;5035913;28;20026;-67
2021/03/31 04:25:30;;;;;;;40.72;24.38;;;;;;;;;;5036436;28;20024;-68
2021/03/31 04:27:58;;;;;;;40.05;24.83;;;;;;;;;;5035768;28;20025;-68
2021/03/31 04:30:24;;;;;;;41.58;24.17;;;;;;;;;;5035974;28;20481;-68
2021/03/31 04:32:51;;;;;;;41.58;23.58;;;;;;;;;;5036604;28;20026;-67
2021/03/31 04:35:18;;;;;;;38.97;23.08;;;;;;;;;;5035658;28;20079;-68
2021/03/31 04:37:44;;;;;;;40.72;23.60;;;;;;;;;;5035881;28;20037;-67
2021/03/31 04:40:11;;;;;;;39.38;23.95;;;;;;;;;;5034766;28;20100;-67
2021/03/31 04:42:37;;;;;;;44.78;27.75;;;;;;;;;;5035203;28;20079;-67
2021/03/31 04:45:04;;;;;;;44.47;24.77;;;;;;;;;;5034851;28;20029;-67
2021/03/31 04:47:32;;;;;;;36.00;24.33;;;;;;;;;;5035076;28;20431;-68
2021/03/31 04:49:58;;;;;;;40.42;23.50;;;;;;;;;;5017147;28;20045;-66
2021/03/31 04:52:24;;;;;;;38.38;23.23;;;;;;;;;;5034893;28;20400;-66
2021/03/31 04:54:50;;;;;;;39.08;22.02;;;;;;;;;;5035025;28;20018;-68
2021/03/31 04:57:16;;;;;;;37.50;21.42;;;;;;;;;;5034422;28;20022;-67
2021/03/31 04:59:42;;;;;;;39.67;23.02;;;;;;;;;;5034720;28;20021;-67
2021/03/31 05:02:09;;;;;;;41.58;23.33;;;;;;;;;;5035012;28;20045;-66
2021/03/31 05:04:35;;;;;;;43.03;24.02;;;;;;;;;;5033926;28;20086;-68
2021/03/31 05:07:01;;;;;;;42.25;24.83;;;;;;;;;;5034580;28;20048;-67
2021/03/31 05:09:27;;;;;;;46.88;23.67;;;;;;;;;;5034815;28;20017;-67
2021/03/31 05:11:53;;;;;;;45.85;24.00;;;;;;;;;;5034785;28;20338;-67
2021/03/31 05:14:20;;;;;;;43.97;23.33;;;;;;;;;;5034696;28;20096;-70
2021/03/31 05:16:46;;;;;;;37.60;22.40;;;;;;;;;;5034418;28;20013;-67
2021/03/31 05:19:12;;;;;;;44.30;24.02;;;;;;;;;;5034498;28;20546;-67
2021/03/31 05:21:38;;;;;;;38.42;22.23;;;;;;;;;;5034327;28;20049;-66
2021/03/31 05:24:05;;;;;;;41.00;23.55;;;;;;;;;;5033940;28;20056;-67
2021/03/31 05:26:31;;;;;;;41.47;24.05;;;;;;;;;;5034318;28;20022;-68
2021/03/31 05:28:57;;;;;;;40.15;23.05;;;;;;;;;;5033697;28;20041;-66
2021/03/31 05:31:23;;;;;;;44.70;24.08;;;;;;;;;;5033062;28;20048;-68
2021/03/31 05:33:50;;;;;;;44.40;24.42;;;;;;;;;;5034287;28;20053;-67
2021/03/31 05:36:16;;;;;;;50.75;25.90;;;;;;;;;;5033859;28;20040;-65
2021/03/31 05:38:42;;;;;;;57.88;28.02;;;;;;;;;;5015985;28;20354;-66
2021/03/31 05:41:13;;;;;;;59.15;30.60;;;;;;;;;;5022347;28;20105;-68
2021/03/31 05:43:40;;;;;;;56.25;31.67;;;;;;;;;;5014888;28;20025;-66
2021/03/31 05:46:10;;;;;;;55.63;29.77;;;;;;;;;;5022607;28;20049;-67
2021/03/31 05:48:37;;;;;;;48.63;27.35;;;;;;;;;;5033174;28;20033;-66
2021/03/31 05:51:03;;;;;;;64.43;36.53;;;;;;;;;;5030783;28;20108;-68
2021/03/31 05:53:29;;;;;;;65.32;36.88;;;;;;;;;;5033860;28;20036;-66
2021/03/31 05:55:57;;;;;;;47.78;29.45;;;;;;;;;;5016187;28;20384;-72
2021/03/31 05:58:34;;;;;;;49.60;28.92;;;;;;;;;;5032865;28;20033;-68
2021/03/31 06:01:02;;;;;;;48.40;29.50;;;;;;;;;;5027750;28;20017;-69
2021/03/31 06:03:28;;;;;;;52.35;29.55;;;;;;;;;;5033988;28;20032;-70
2021/03/31 06:05:56;;;;;;;48.13;26.35;;;;;;;;;;5012950;28;20025;-69
2021/03/31 06:08:23;;;;;;;44.22;24.65;;;;;;;;;;5012944;28;20118;-67
2021/03/31 06:10:59;;;;;;;33.15;22.52;;;;;;;;;;5032386;28;20017;-67
2021/03/31 06:13:26;;;;;;;42.85;22.92;;;;;;;;;;5005833;28;20026;-68
2021/03/31 06:15:55;;;;;;;39.40;24.55;;;;;;;;;;5031063;28;20025;-68
2021/03/31 06:18:22;;;;;;;37.10;21.40;;;;;;;;;;5032979;28;20022;-69
2021/03/31 06:21:04;;;;;;;46.63;24.90;;;;;;;;;;5031106;28;20018;-70
2021/03/31 06:26:36;;;;;;;50.95;26.13;;;;;;;;;;5031088;28;20022;-69
2021/03/31 06:29:09;;;;;;;51.53;25.70;;;;;;;;;;4951692;28;20038;-70
2021/03/31 06:31:39;;;;;;;42.97;24.95;;;;;;;;;;4950874;29;20059;-70
2021/03/31 06:34:09;;;;;;;38.65;23.63;;;;;;;;;;4949360;29;20043;-68
2021/03/31 06:36:42;;;;;;;42.60;24.67;;;;;;;;;;4935772;29;20053;-70
2021/03/31 06:39:24;;;;;;;40.00;23.45;;;;;;;;;;4949076;29;20035;-69
2021/03/31 06:41:51;;;;;;;35.38;22.05;;;;;;;;;;4949603;29;20491;-68
2021/03/31 06:44:29;;;;;;;39.17;22.20;;;;;;;;;;4930788;29;20027;-67
2021/03/31 06:47:03;;;;;;;37.72;21.77;;;;;;;;;;4948184;29;20039;-69
2021/03/31 06:49:29;;;;;;;39.42;22.35;;;;;;;;;;4949804;29;20028;-70
2021/03/31 06:52:17;;;;;;;38.45;22.27;;;;;;;;;;4948402;28;20027;-68
2021/03/31 06:54:53;;;;;;;44.15;23.40;;;;;;;;;;4965605;28;20441;-68
2021/03/31 06:57:25;;;;;;;38.00;22.70;;;;;;;;;;4950415;29;20530;-69
2021/03/31 07:00:11;;;;;;;34.47;21.45;;;;;;;;;;4950580;29;20043;-69
2021/03/31 07:02:38;;;;;;;33.13;21.27;;;;;;;;;;4949985;29;20035;-68
2021/03/31 07:05:05;;;;;;;35.47;21.83;;;;;;;;;;4963079;28;20035;-68
2021/03/31 07:07:38;;;;;;;33.28;21.48;;;;;;;;;;5011550;28;20113;-68
2021/03/31 07:10:06;;;;;;;33.88;21.60;;;;;;;;;;5009378;28;20018;-67
2021/03/31 07:12:38;;;;;;;37.08;22.10;;;;;;;;;;5011589;28;20117;-68
2021/03/31 07:15:05;;;;;;;34.92;21.55;;;;;;;;;;5009822;28;20346;-68
2021/03/31 07:17:32;;;;;;;34.35;20.95;;;;;;;;;;5011366;28;20030;-68
2021/03/31 07:19:58;;;;;;;32.20;19.40;;;;;;;;;;5009674;28;20032;-69
2021/03/31 07:22:25;;;;;;;24.27;15.43;;;;;;;;;;5011890;28;20022;-68
2021/03/31 07:24:54;;;;;;;27.58;15.63;;;;;;;;;;5011807;28;20033;-69
2021/03/31 07:27:23;;;;;;;29.23;15.32;;;;;;;;;;5009247;28;20036;-70
2021/03/31 07:32:49;;;;;;;26.48;13.75;;;;;;;;;;4932932;29;20055;-68
2021/03/31 07:35:16;;;;;;;27.75;14.88;;;;;;;;;;4933947;29;20036;-68
2021/03/31 07:37:44;;;;;;;38.47;17.33;;;;;;;;;;4934251;29;20036;-68
2021/03/31 07:40:11;;;;;;;30.23;18.13;;;;;;;;;;4932430;29;20036;-68
2021/03/31 07:42:39;;;;;;;23.60;14.48;;;;;;;;;;4934052;29;20506;-71
2021/03/31 07:45:07;;;;;;;21.70;14.55;;;;;;;;;;4933497;29;20476;-71
2021/03/31 07:47:34;;;;;;;26.60;16.48;;;;;;;;;;4913033;29;20443;-69
2021/03/31 07:50:00;;;;;;;27.10;16.38;;;;;;;;;;4935745;29;20497;-70
2021/03/31 07:52:45;;;;;;;29.88;16.48;;;;;;;;;;4919937;29;20502;-68
2021/03/31 07:55:29;;;;;;;25.33;15.70;;;;;;;;;;4924770;29;20039;-69
2021/03/31 07:58:16;;;;;;;31.05;16.77;;;;;;;;;;4935461;29;20183;-69
2021/03/31 08:00:46;;;;;;;27.73;16.23;;;;;;;;;;4935171;29;20023;-70
2021/03/31 08:03:16;;;;;;;25.95;16.73;;;;;;;;;;4934489;29;20059;-69
2021/03/31 08:06:00;;;;;;;27.02;16.42;;;;;;;;;;4936066;29;20444;-69
2021/03/31 08:08:27;;;;;;;30.15;18.60;;;;;;;;;;4952238;28;20034;-67
2021/03/31 08:10:53;;;;;;;30.88;19.65;;;;;;;;;;5014730;28;20049;-71
2021/03/31 08:13:35;;;;;;;37.47;20.75;;;;;;;;;;5013399;28;20469;-69
2021/03/31 08:16:02;;;;;;;41.30;20.77;;;;;;;;;;5013163;28;20049;-67
2021/03/31 08:18:28;;;;;;;37.47;22.17;;;;;;;;;;5015311;28;20033;-68
2021/03/31 08:20:55;;;;;;;34.15;22.05;;;;;;;;;;5014437;28;20060;-69
2021/03/31 08:23:40;;;;;;;33.42;19.50;;;;;;;;;;5013938;28;20026;-70
2021/03/31 08:26:25;;;;;;;31.48;20.42;;;;;;;;;;5044910;28;20037;-69
2021/03/31 08:28:51;;;;;;;39.58;22.15;;;;;;;;;;5013638;28;20065;-70
2021/03/31 08:31:21;;;;;;;41.72;23.20;;;;;;;;;;5011727;28;20536;-69
2021/03/31 08:33:48;;;;;;;36.72;24.23;;;;;;;;;;5012241;28;20046;-72
2021/03/31 08:36:14;;;;;;;37.80;23.40;;;;;;;;;;5012958;28;20361;-72
2021/03/31 08:38:41;;;;;;;42.45;23.63;;;;;;;;;;5012205;28;20481;-72
2021/03/31 08:41:17;;;;;;;41.13;23.63;;;;;;;;;;5013775;28;20432;-65
2021/03/31 08:43:45;;;;;;;36.42;20.75;;;;;;;;;;5011580;28;20022;-71
2021/03/31 08:46:11;;;;;;;33.50;20.33;;;;;;;;;;5014384;28;20076;-73
2021/03/31 08:48:39;;;;;;;40.50;22.33;;;;;;;;;;5012928;28;20022;-66
2021/03/31 08:51:06;;;;;;;30.58;17.75;;;;;;;;;;5014597;28;20096;-71
2021/03/31 08:53:32;;;;;;;33.28;18.88;;;;;;;;;;5013581;28;20068;-70
2021/03/31 08:56:08;;;;;;;35.78;20.58;;;;;;;;;;5013997;28;20026;-69
2021/03/31 08:58:35;;;;;;;28.55;18.55;;;;;;;;;;5013052;28;20492;-71
2021/03/31 09:01:01;;;;;;;31.90;18.08;;;;;;;;;;5014384;28;20022;-70
2021/03/31 09:03:30;;;;;;;28.40;15.80;;;;;;;;;;5011577;28;20045;-67
2021/03/31 09:05:57;;;;;;;23.83;15.10;;;;;;;;;;5015881;28;20037;-67
2021/03/31 09:08:23;;;;;;;24.67;14.93;;;;;;;;;;5013920;28;20095;-68
2021/03/31 09:10:51;;;;;;;27.50;14.45;;;;;;;;;;5014074;28;20025;-69
2021/03/31 09:13:27;;;;;;;26.75;14.75;;;;;;;;;;5011998;28;20052;-68
2021/03/31 09:16:15;;;;;;;24.58;15.07;;;;;;;;;;5004404;28;20490;-70
2021/03/31 09:18:42;;;;;;;18.83;7.80;;;;;;;;;;4995457;28;20109;-67
2021/03/31 09:21:09;;;;;;;12.73;9.07;;;;;;;;;;4994362;28;20079;-68
2021/03/31 09:23:35;;;;;;;19.13;10.07;;;;;;;;;;4998605;28;20025;-66
2021/03/31 09:26:04;;;;;;;15.30;9.23;;;;;;;;;;4997634;28;20034;-68
2021/03/31 09:28:31;;;;;;;18.80;10.82;;;;;;;;;;4993975;28;20022;-68
2021/03/31 09:31:11;;;;;;;10.40;5.97;;;;;;;;;;4993569;28;20051;-69
2021/03/31 09:33:43;;;;;;;16.38;9.63;;;;;;;;;;5007052;28;20440;-69
2021/03/31 09:36:10;;;;;;;16.73;10.88;;;;;;;;;;5013817;28;20061;-69
2021/03/31 09:38:36;;;;;;;18.63;13.40;;;;;;;;;;5013027;28;20041;-71
2021/03/31 09:41:05;;;;;;;20.42;12.27;;;;;;;;;;5014486;28;20489;-66
2021/03/31 09:43:32;;;;;;;21.45;12.27;;;;;;;;;;5014404;28;20112;-66
2021/03/31 09:45:58;;;;;;;22.15;12.70;;;;;;;;;;5014741;28;20032;-69
2021/03/31 09:48:25;;;;;;;20.02;12.52;;;;;;;;;;5013968;28;20517;-65
2021/03/31 09:50:52;;;;;;;21.42;13.15;;;;;;;;;;5013821;28;20037;-64
2021/03/31 09:53:21;;;;;;;24.40;11.88;;;;;;;;;;5014124;28;20025;-65
2021/03/31 09:55:48;;;;;;;19.17;12.60;;;;;;;;;;5014460;28;20022;-68
2021/03/31 09:58:14;;;;;;;19.75;10.85;;;;;;;;;;5011821;28;20181;-65
2021/03/31 10:00:41;;;;;;;17.85;12.32;;;;;;;;;;5003408;28;20366;-65
2021/03/31 10:03:13;;;;;;;18.65;11.85;;;;;;;;;;4994532;28;20084;-67
2021/03/31 10:05:39;;;;;;;17.30;11.45;;;;;;;;;;4994513;28;20513;-67
2021/03/31 10:08:09;;;;;;;20.88;12.20;;;;;;;;;;4994342;28;20390;-65
2021/03/31 10:10:40;;;;;;;20.50;12.20;;;;;;;;;;4993388;28;20403;-65
2021/03/31 10:13:06;;;;;;;16.92;11.40;;;;;;;;;;4994236;28;20029;-66
2021/03/31 10:15:32;;;;;;;19.17;11.07;;;;;;;;;;4994377;28;20028;-65
2021/03/31 10:17:58;;;;;;;18.75;11.50;;;;;;;;;;4994245;28;20469;-67
2021/03/31 10:20:30;;;;;;;16.42;10.45;;;;;;;;;;4995033;28;20038;-67
2021/03/31 10:22:56;;;;;;;18.58;10.43;;;;;;;;;;5013599;28;20030;-66
2021/03/31 10:25:29;;;;;;;17.67;11.38;;;;;;;;;;5013835;28;20026;-67
2021/03/31 10:27:55;;;;;;;23.45;12.93;;;;;;;;;;5013188;28;20032;-65
2021/03/31 10:30:27;;;;;;;23.23;12.60;;;;;;;;;;5017801;28;20046;-67
2021/03/31 10:32:53;;;;;;;22.08;11.57;;;;;;;;;;5032785;28;20029;-68
2021/03/31 10:35:38;;;;;;;21.77;11.95;;;;;;;;;;5033373;28;20022;-67
2021/03/31 10:38:07;;;;;;;20.15;12.90;;;;;;;;;;5033361;28;20425;-66
2021/03/31 10:49:10;;;;;;;17.02;10.18;;;;;;;;;;5031497;28;20088;-67
2021/03/31 10:51:54;;;;;;;17.67;10.32;;;;;;;;;;5032210;28;20024;-67
2021/03/31 10:54:24;;;;;;;17.33;10.52;;;;;;;;;;5030414;28;20029;-68
2021/03/31 10:56:53;;;;;;;15.48;9.40;;;;;;;;;;5030920;28;20092;-66
2021/03/31 10:59:19;;;;;;;13.55;8.73;;;;;;;;;;5029505;28;20030;-68
2021/03/31 11:01:46;;;;;;;16.38;9.55;;;;;;;;;;5011696;28;20108;-68
2021/03/31 11:04:12;;;;;;;17.73;9.60;;;;;;;;;;5036022;28;20029;-67
2021/03/31 11:06:38;;;;;;;17.02;9.80;;;;;;;;;;5027795;28;20040;-67
2021/03/31 11:09:05;;;;;;;14.25;9.52;;;;;;;;;;5019205;28;20357;-67
2021/03/31 11:11:31;;;;;;;17.70;9.13;;;;;;;;;;5035602;28;20033;-68
2021/03/31 11:13:57;;;;;;;18.67;9.38;;;;;;;;;;5035979;28;20026;-67
2021/03/31 11:16:25;;;;;;;25.13;13.40;;;;;;;;;;5035618;28;20046;-66
2021/03/31 11:22:05;;;;;;;13.43;9.52;;;;;;;;;;5033515;28;20087;-65
2021/03/31 11:27:10;;;;;;;12.32;7.85;;;;;;;;;;5032045;28;20052;-66
2021/03/31 11:29:36;;;;;;;12.75;7.55;;;;;;;;;;5035066;28;20439;-67
2021/03/31 11:32:03;;;;;;;11.40;7.32;;;;;;;;;;5034472;28;20129;-67
2021/03/31 11:34:36;;;;;;;12.13;7.50;;;;;;;;;;5035338;28;20551;-66
2021/03/31 11:37:03;;;;;;;12.90;7.93;;;;;;;;;;5036010;28;20083;-65
2021/03/31 11:39:29;;;;;;;14.60;7.75;;;;;;;;;;5036398;28;20036;-66
2021/03/31 11:41:55;;;;;;;18.17;9.23;;;;;;;;;;5035172;28;20026;-66
2021/03/31 11:44:21;;;;;;;10.57;6.82;;;;;;;;;;5034743;28;20021;-66
2021/03/31 11:46:47;;;;;;;16.25;8.25;;;;;;;;;;5034622;28;20053;-68
2021/03/31 11:49:15;;;;;;;12.00;7.57;;;;;;;;;;5036323;28;20017;-68
2021/03/31 11:51:42;;;;;;;11.70;7.20;;;;;;;;;;5036105;28;20075;-66
2021/03/31 11:54:09;;;;;;;13.48;7.80;;;;;;;;;;5036441;28;20029;-66
2021/03/31 11:56:35;;;;;;;10.95;6.43;;;;;;;;;;5036101;28;20044;-67
2021/03/31 11:59:01;;;;;;;9.82;6.22;;;;;;;;;;5018499;28;20028;-66
2021/03/31 12:01:27;;;;;;;12.45;6.82;;;;;;;;;;5036197;28;20030;-67
2021/03/31 12:03:54;;;;;;;12.68;6.90;;;;;;;;;;5035556;28;20022;-66
2021/03/31 12:06:20;;;;;;;12.45;6.55;;;;;;;;;;5033574;28;20496;-66
2021/03/31 12:08:48;;;;;;;8.73;5.97;;;;;;;;;;5035924;28;20044;-67
2021/03/31 12:11:15;;;;;;;12.73;5.63;;;;;;;;;;5036035;28;20100;-66
2021/03/31 12:13:42;;;;;;;10.48;6.18;;;;;;;;;;5036015;28;20041;-68
2021/03/31 12:16:08;;;;;;;10.85;6.43;;;;;;;;;;5036262;28;20029;-65
2021/03/31 12:18:34;;;;;;;10.40;6.20;;;;;;;;;;5035949;28;20495;-66
2021/03/31 12:21:00;;;;;;;8.73;5.65;;;;;;;;;;5035882;28;20072;-65
2021/03/31 12:23:27;;;;;;;8.75;6.45;;;;;;;;;;5035926;28;20022;-66
2021/03/31 12:25:53;;;;;;;11.63;6.70;;;;;;;;;;5034902;28;20101;-71
2021/03/31 12:28:21;;;;;;;12.18;7.07;;;;;;;;;;5017377;28;20087;-66
2021/03/31 12:30:47;;;;;;;13.35;8.40;;;;;;;;;;5031558;28;20412;-70
2021/03/31 12:33:13;;;;;;;9.98;5.80;;;;;;;;;;5034834;28;20022;-69
2021/03/31 12:35:39;;;;;;;11.05;6.18;;;;;;;;;;5033889;28;20068;-69
2021/03/31 12:38:05;;;;;;;9.00;5.40;;;;;;;;;;5016705;28;20548;-68
2021/03/31 12:40:31;;;;;;;11.90;5.57;;;;;;;;;;5015002;28;20022;-70
2021/03/31 12:42:58;;;;;;;10.13;5.65;;;;;;;;;;5019121;28;20465;-68
2021/03/31 12:45:24;;;;;;;11.18;5.63;;;;;;;;;;4997243;28;20030;-68
2021/03/31 12:47:50;;;;;;;9.43;5.47;;;;;;;;;;5015918;28;20022;-67
2021/03/31 12:50:19;;;;;;;10.52;5.90;;;;;;;;;;5029191;28;20022;-65
2021/03/31 12:52:55;;;;;;;10.45;6.50;;;;;;;;;;5033370;28;20369;-68
2021/03/31 12:55:30;;;;;;;9.07;6.05;;;;;;;;;;5033176;28;20017;-67
2021/03/31 12:58:02;;;;;;;8.82;6.10;;;;;;;;;;5034736;28;20457;-66
2021/03/31 13:00:28;;;;;;;9.02;4.82;;;;;;;;;;5034303;28;20021;-70
2021/03/31 13:02:54;;;;;;;8.73;5.22;;;;;;;;;;5016683;28;20394;-70
2021/03/31 13:05:20;;;;;;;9.10;5.07;;;;;;;;;;5017030;28;20376;-68
2021/03/31 13:07:46;;;;;;;17.30;9.13;;;;;;;;;;5034472;28;20021;-71
2021/03/31 13:10:14;;;;;;;9.70;5.45;;;;;;;;;;5033662;28;20025;-69
2021/03/31 13:12:57;;;;;;;10.98;5.20;;;;;;;;;;5016606;28;20029;-71
2021/03/31 13:15:45;;;;;;;6.22;4.60;;;;;;;;;;5034447;28;20021;-69
2021/03/31 13:26:35;;;;;;;11.82;4.20;;;;;;;;;;5014210;28;20520;-68
2021/03/31 13:31:32;;;;;;;10.98;5.13;;;;;;;;;;5014916;28;20504;-66
2021/03/31 13:34:07;;;;;;;6.00;3.85;;;;;;;;;;5014532;28;20026;-68
2021/03/31 13:36:40;;;;;;;7.55;3.88;;;;;;;;;;5017684;28;20108;-71
2021/03/31 13:39:17;;;;;;;7.47;3.83;;;;;;;;;;5034874;28;20052;-69
2021/03/31 13:41:43;;;;;;;7.65;4.10;;;;;;;;;;5016354;28;20026;-68
2021/03/31 13:44:09;;;;;;;8.63;3.60;;;;;;;;;;5033849;28;20389;-68
2021/03/31 13:46:37;;;;;;;7.05;4.00;;;;;;;;;;5034060;28;20380;-68
2021/03/31 13:49:07;;;;;;;5.45;3.58;;;;;;;;;;5033386;28;20045;-67
2021/03/31 13:51:41;;;;;;;8.57;4.47;;;;;;;;;;5033904;28;20017;-69
2021/03/31 13:54:07;;;;;;;8.30;3.90;;;;;;;;;;5033561;28;20028;-73
2021/03/31 13:56:40;;;;;;;7.80;3.92;;;;;;;;;;5033246;28;20026;-72
2021/03/31 13:59:07;;;;;;;9.85;4.18;;;;;;;;;;5033411;28;20037;-68
2021/03/31 14:01:33;;;;;;;9.40;4.53;;;;;;;;;;5033575;28;20064;-69
2021/03/31 14:03:59;;;;;;;9.82;3.92;;;;;;;;;;5033152;28;20021;-69
2021/03/31 14:06:26;;;;;;;11.98;4.47;;;;;;;;;;5033591;28;20036;-68
2021/03/31 14:08:52;;;;;;;7.78;3.72;;;;;;;;;;5015732;28;20026;-70
2021/03/31 14:11:18;;;;;;;7.03;4.43;;;;;;;;;;5015525;28;20483;-67
2021/03/31 14:13:44;;;;;;;9.25;4.47;;;;;;;;;;5033515;28;20026;-69
2021/03/31 14:16:10;;;;;;;6.88;3.83;;;;;;;;;;5033292;28;20021;-68
2021/03/31 14:18:38;;;;;;;10.82;4.47;;;;;;;;;;5033074;28;20025;-70
2021/03/31 14:21:05;;;;;;;8.13;4.28;;;;;;;;;;5015578;28;20124;-69
2021/03/31 14:23:31;;;;;;;9.73;4.45;;;;;;;;;;5014898;28;20021;-68
2021/03/31 14:25:57;;;;;;;5.68;3.88;;;;;;;;;;5032935;28;20092;-69
2021/03/31 14:28:24;;;;;;;10.90;4.70;;;;;;;;;;5033392;28;20021;-68
2021/03/31 14:30:50;;;;;;;9.13;4.57;;;;;;;;;;5032522;28;20056;-67
2021/03/31 14:33:16;;;;;;;9.00;4.25;;;;;;;;;;5033313;28;20021;-68
2021/03/31 14:35:42;;;;;;;8.55;4.20;;;;;;;;;;5032713;28;20024;-70
2021/03/31 14:38:08;;;;;;;8.20;4.53;;;;;;;;;;5031347;28;20037;-68
2021/03/31 14:40:34;;;;;;;11.55;4.60;;;;;;;;;;5032312;28;20033;-70
2021/03/31 14:43:01;;;;;;;10.40;4.22;;;;;;;;;;5013583;28;20544;-70
2021/03/31 14:45:27;;;;;;;9.32;5.30;;;;;;;;;;5030766;28;20022;-68
2021/03/31 14:47:54;;;;;;;7.43;4.45;;;;;;;;;;5013584;28;20385;-70
2021/03/31 14:50:27;;;;;;;8.20;4.22;;;;;;;;;;5032004;28;20018;-69
2021/03/31 15:00:39;;;;;;;10.57;5.32;;;;;;;;;;5032587;28;20388;-75
2021/03/31 15:03:05;;;;;;;11.00;4.47;;;;;;;;;;5013934;28;20108;-70
2021/03/31 15:05:31;;;;;;;9.75;4.50;;;;;;;;;;5013609;28;20018;-71
2021/03/31 15:07:57;;;;;;;10.50;5.28;;;;;;;;;;5014161;28;20033;-68